Time;durP1;ratioP1;P1;durP2;ratioP2;P2;SDS_P1;SDS_P2;PMS_P1;PMS_P2;Temp;Humidity;BMP_temperature;BMP_pressure;BME280_temperature;BME280_humidity;BME280_pressure;Samples;Min_cycle;Max_cycle;Signal;HPM_P1;HPM_P2
2022/03/24 00:01:42;;;;;;;52.35;40.42;;;6.30;99.90;;;;;;5052988;28;20059;-50
2022/03/24 00:04:08;;;;;;;49.90;41.22;;;6.30;99.90;;;;;;5046371;28;20505;-50
2022/03/24 00:06:34;;;;;;;49.45;38.60;;;6.20;99.90;;;;;;5050686;28;20338;-44
2022/03/24 00:09:00;;;;;;;47.90;41.35;;;6.20;99.90;;;;;;5042502;28;20064;-54
2022/03/24 00:11:26;;;;;;;51.53;41.35;;;6.10;99.90;;;;;;5062538;28;20060;-52
2022/03/24 00:13:52;;;;;;;51.50;40.10;;;6.10;99.90;;;;;;5074382;28;20105;-54
2022/03/24 00:16:24;;;;;;;52.33;40.22;;;6.10;99.90;;;;;;5064928;28;20059;-54
2022/03/24 00:18:50;;;;;;;50.67;40.33;;;6.10;99.90;;;;;;5083209;28;20047;-54
2022/03/24 00:21:16;;;;;;;52.35;42.63;;;6.10;99.90;;;;;;5068798;28;20044;-53
2022/03/24 00:23:45;;;;;;;57.05;44.15;;;6.10;99.90;;;;;;5076307;28;20051;-52
2022/03/24 00:26:12;;;;;;;53.08;45.03;;;6.10;99.90;;;;;;5070344;28;20134;-53
2022/03/24 00:28:38;;;;;;;52.60;43.78;;;6.00;99.90;;;;;;5074348;28;20403;-49
2022/03/24 00:31:04;;;;;;;56.03;43.28;;;6.00;99.90;;;;;;5076567;28;20051;-53
2022/03/24 00:33:31;;;;;;;53.03;43.47;;;6.00;99.90;;;;;;5082631;28;20144;-52
2022/03/24 00:35:56;;;;;;;58.95;44.65;;;6.00;99.90;;;;;;5078072;28;20071;-51
2022/03/24 00:38:22;;;;;;;58.40;43.42;;;6.00;99.90;;;;;;5081554;28;20052;-51
2022/03/24 00:40:48;;;;;;;54.65;44.35;;;6.00;99.90;;;;;;5082671;28;20489;-51
2022/03/24 00:43:14;;;;;;;51.47;41.17;;;5.90;99.90;;;;;;5082230;28;20048;-51
2022/03/24 00:45:40;;;;;;;53.63;44.15;;;5.90;99.90;;;;;;5072234;28;20052;-52
2022/03/24 00:48:08;;;;;;;57.55;43.83;;;5.90;99.90;;;;;;5072792;28;20055;-52
2022/03/24 00:50:35;;;;;;;52.83;43.85;;;5.80;99.90;;;;;;5075568;28;20113;-51
2022/03/24 00:53:02;;;;;;;56.40;45.90;;;5.80;99.90;;;;;;5065858;28;20068;-53
2022/03/24 00:55:28;;;;;;;58.55;46.22;;;5.70;99.90;;;;;;5067234;28;20052;-52
2022/03/24 00:57:54;;;;;;;54.40;44.40;;;5.70;99.90;;;;;;5076274;28;20550;-55
2022/03/24 01:00:22;;;;;;;62.97;46.72;;;5.70;99.90;;;;;;5056788;28;20529;-52
2022/03/24 01:02:52;;;;;;;64.15;48.42;;;5.60;99.90;;;;;;5062840;28;20086;-53
2022/03/24 01:05:19;;;;;;;58.17;44.35;;;5.60;99.90;;;;;;5067860;28;20036;-50
2022/03/24 01:07:45;;;;;;;54.70;42.85;;;5.60;99.90;;;;;;5067171;28;20044;-52
2022/03/24 01:10:17;;;;;;;45.22;38.90;;;5.50;99.90;;;;;;5074067;28;20040;-55
2022/03/24 01:12:44;;;;;;;48.90;37.95;;;5.50;99.90;;;;;;5063330;28;20053;-50
2022/03/24 01:15:12;;;;;;;49.78;37.90;;;5.50;99.90;;;;;;5047199;28;20412;-52
2022/03/24 01:17:38;;;;;;;55.53;41.03;;;5.40;99.90;;;;;;5053623;28;20056;-52
2022/03/24 01:20:05;;;;;;;50.08;39.33;;;5.30;99.90;;;;;;5060863;28;20044;-51
2022/03/24 01:22:32;;;;;;;36.20;29.77;;;5.30;99.90;;;;;;5060923;28;20063;-54
2022/03/24 01:24:59;;;;;;;30.27;24.67;;;5.20;99.90;;;;;;5044935;28;20049;-52
2022/03/24 01:27:28;;;;;;;29.13;22.08;;;5.20;99.90;;;;;;5036179;28;20048;-52
2022/03/24 01:29:56;;;;;;;21.42;17.58;;;5.20;99.90;;;;;;5063103;28;20060;-52
2022/03/24 01:32:24;;;;;;;22.20;19.33;;;5.10;99.90;;;;;;5065605;28;20056;-54
2022/03/24 01:34:51;;;;;;;30.88;23.85;;;5.10;99.90;;;;;;5062348;28;20833;-53
2022/03/24 01:37:18;;;;;;;35.63;27.50;;;5.00;99.90;;;;;;5040739;28;20602;-53
2022/03/24 01:39:43;;;;;;;31.80;25.23;;;5.00;99.90;;;;;;5042558;28;20460;-53
2022/03/24 01:42:09;;;;;;;42.50;36.35;;;4.90;99.90;;;;;;5047572;28;20497;-53
2022/03/24 01:44:35;;;;;;;41.60;34.65;;;4.90;99.90;;;;;;5029374;28;20061;-53
2022/03/24 01:47:05;;;;;;;44.95;37.92;;;4.90;99.90;;;;;;5048350;28;20048;-53
2022/03/24 01:49:34;;;;;;;44.45;36.08;;;4.90;99.90;;;;;;5044785;28;20076;-52
2022/03/24 01:52:00;;;;;;;59.40;45.63;;;4.80;99.90;;;;;;5024032;28;20041;-51
2022/03/24 01:54:30;;;;;;;56.65;44.13;;;4.70;99.90;;;;;;5042682;28;20407;-51
2022/03/24 01:56:57;;;;;;;59.45;44.30;;;4.60;99.90;;;;;;5044401;28;20056;-51
2022/03/24 01:59:24;;;;;;;63.00;47.35;;;4.50;99.90;;;;;;5052814;28;20049;-53
2022/03/24 02:01:50;;;;;;;61.63;48.28;;;4.50;99.90;;;;;;5060532;28;20109;-53
2022/03/24 02:04:17;;;;;;;60.83;46.65;;;4.60;99.90;;;;;;5059768;28;20623;-54
2022/03/24 02:06:43;;;;;;;56.50;44.22;;;4.50;99.90;;;;;;5053327;28;20052;-54
2022/03/24 02:09:09;;;;;;;62.05;48.22;;;4.60;99.90;;;;;;5053491;28;20048;-54
2022/03/24 02:11:35;;;;;;;55.67;44.75;;;4.60;99.90;;;;;;5035377;28;20048;-53
2022/03/24 02:14:03;;;;;;;59.50;46.92;;;4.60;99.90;;;;;;5055497;28;20048;-55
2022/03/24 02:16:38;;;;;;;55.70;43.47;;;4.60;99.90;;;;;;5080174;28;20090;-51
2022/03/24 02:19:22;;;;;;;58.85;46.72;;;4.60;99.90;;;;;;5067368;28;20580;-52
2022/03/24 02:21:50;;;;;;;56.58;44.20;;;4.60;99.90;;;;;;5067588;28;20101;-52
2022/03/24 02:24:18;;;;;;;57.03;43.40;;;4.60;99.90;;;;;;5059945;28;20056;-50
2022/03/24 02:26:45;;;;;;;57.80;42.13;;;4.50;99.90;;;;;;5081207;28;20047;-54
2022/03/24 02:29:12;;;;;;;56.05;44.72;;;4.50;99.90;;;;;;5078358;28;20048;-50
2022/03/24 02:31:42;;;;;;;56.47;43.97;;;4.50;99.90;;;;;;5041332;28;20044;-46
2022/03/24 02:36:57;;;;;;;54.30;41.38;;;4.50;99.90;;;;;;5079847;28;20164;-48
2022/03/24 02:39:23;;;;;;;52.75;40.28;;;4.50;99.90;;;;;;5085442;28;20159;-53
2022/03/24 02:41:52;;;;;;;47.88;38.60;;;4.50;99.90;;;;;;5085678;28;20443;-53
2022/03/24 02:44:22;;;;;;;43.55;36.40;;;4.50;99.90;;;;;;5084217;28;20776;-51
2022/03/24 02:46:50;;;;;;;46.42;36.97;;;4.40;99.90;;;;;;5085488;28;20547;-55
2022/03/24 02:49:18;;;;;;;46.53;36.55;;;4.40;99.90;;;;;;5086450;28;20127;-52
2022/03/24 02:51:44;;;;;;;47.50;36.78;;;4.40;99.90;;;;;;5055325;28;20105;-53
2022/03/24 02:54:10;;;;;;;52.15;40.30;;;4.40;99.90;;;;;;5070331;28;20040;-53
2022/03/24 02:56:42;;;;;;;56.28;42.08;;;4.40;99.90;;;;;;5081209;28;20525;-53
2022/03/24 02:59:08;;;;;;;56.05;43.78;;;4.40;99.90;;;;;;5060558;28;20041;-51
2022/03/24 03:01:35;;;;;;;52.28;41.58;;;4.30;99.90;;;;;;5082647;28;20040;-51
2022/03/24 03:04:02;;;;;;;55.83;44.13;;;4.30;99.90;;;;;;5075131;28;20054;-54
2022/03/24 03:06:27;;;;;;;54.45;43.08;;;4.30;99.90;;;;;;5075457;28;20052;-53
2022/03/24 03:08:53;;;;;;;58.08;43.22;;;4.30;99.90;;;;;;5081837;28;20105;-53
2022/03/24 03:11:23;;;;;;;60.28;46.53;;;4.30;99.90;;;;;;5066720;28;20055;-53
2022/03/24 03:13:49;;;;;;;56.55;42.42;;;4.20;99.90;;;;;;5070434;28;20048;-52
2022/03/24 03:16:16;;;;;;;49.22;38.40;;;4.20;99.90;;;;;;5074839;28;20055;-50
2022/03/24 03:18:42;;;;;;;61.78;48.35;;;4.20;99.90;;;;;;5078847;28;20137;-47
2022/03/24 03:21:11;;;;;;;61.97;47.58;;;4.20;99.90;;;;;;5082590;28;20155;-47
2022/03/24 03:23:38;;;;;;;63.45;49.65;;;4.20;99.90;;;;;;5049472;28;20059;-54
2022/03/24 03:26:08;;;;;;;61.42;47.17;;;4.10;99.90;;;;;;5083951;28;20048;-54
2022/03/24 03:28:34;;;;;;;57.20;42.75;;;4.10;99.90;;;;;;5076870;28;20451;-47
2022/03/24 03:31:01;;;;;;;59.63;42.83;;;4.10;99.90;;;;;;5069635;28;20044;-51
2022/03/24 03:33:27;;;;;;;61.28;45.42;;;4.00;99.90;;;;;;5069312;28;20504;-51
2022/03/24 03:35:52;;;;;;;57.90;45.72;;;4.00;99.90;;;;;;5061067;28;20056;-53
2022/03/24 03:38:19;;;;;;;66.95;48.50;;;4.10;99.90;;;;;;5077325;28;20070;-54
2022/03/24 03:40:46;;;;;;;62.95;46.35;;;4.00;99.90;;;;;;5084455;28;20044;-50
2022/03/24 03:43:14;;;;;;;61.38;45.60;;;4.00;99.90;;;;;;5075640;28;20499;-54
2022/03/24 03:45:41;;;;;;;70.55;53.40;;;4.00;99.90;;;;;;5081249;28;20402;-48
2022/03/24 03:48:07;;;;;;;65.13;49.65;;;4.00;99.90;;;;;;5077094;28;20383;-51
2022/03/24 03:50:33;;;;;;;53.97;40.35;;;4.00;99.90;;;;;;5058153;28;20104;-50
2022/03/24 03:53:00;;;;;;;55.05;44.00;;;4.00;99.90;;;;;;5073475;28;20537;-47
2022/03/24 03:55:27;;;;;;;58.40;45.30;;;4.00;99.90;;;;;;5064677;28;20162;-51
2022/03/24 03:57:54;;;;;;;61.13;44.92;;;4.00;99.90;;;;;;5083144;28;20048;-53
2022/03/24 04:03:05;;;;;;;67.10;50.72;;;4.00;99.90;;;;;;5073206;28;20076;-53
2022/03/24 04:05:31;;;;;;;62.03;46.15;;;4.00;99.90;;;;;;5071678;28;20052;-52
2022/03/24 04:07:58;;;;;;;59.75;46.63;;;4.00;99.90;;;;;;5071788;28;20054;-52
2022/03/24 04:10:26;;;;;;;52.42;42.17;;;4.00;99.90;;;;;;5069919;28;20099;-55
2022/03/24 04:12:52;;;;;;;43.85;33.45;;;4.00;99.90;;;;;;5080456;28;20499;-54
2022/03/24 04:15:18;;;;;;;50.17;38.53;;;4.00;99.90;;;;;;5083859;28;20043;-55
2022/03/24 04:17:44;;;;;;;43.85;34.50;;;4.00;99.90;;;;;;5078667;28;20375;-54
2022/03/24 04:20:12;;;;;;;48.17;36.15;;;3.90;99.90;;;;;;5076495;28;20119;-54
2022/03/24 04:22:40;;;;;;;42.03;33.70;;;3.90;99.90;;;;;;5079098;28;20444;-46
2022/03/24 04:25:06;;;;;;;56.80;42.10;;;3.90;99.90;;;;;;5082344;28;20055;-54
2022/03/24 04:27:32;;;;;;;55.40;42.50;;;3.80;99.90;;;;;;5074899;28;20040;-51
2022/03/24 04:29:58;;;;;;;55.00;41.28;;;3.80;99.90;;;;;;5070333;28;20040;-54
2022/03/24 04:32:23;;;;;;;51.13;40.42;;;3.80;99.90;;;;;;5077449;28;20047;-52
2022/03/24 04:34:49;;;;;;;40.97;33.25;;;3.70;99.90;;;;;;5063763;28;20052;-51
2022/03/24 04:37:15;;;;;;;24.95;22.10;;;3.70;99.90;;;;;;5082305;28;20051;-51
2022/03/24 04:39:46;;;;;;;19.33;16.63;;;3.70;99.90;;;;;;5067675;28;20106;-47
2022/03/24 04:42:15;;;;;;;22.05;18.55;;;3.60;99.90;;;;;;5081372;28;20048;-53
2022/03/24 04:44:41;;;;;;;30.38;25.25;;;3.50;99.90;;;;;;5069269;28;20044;-53
2022/03/24 04:47:07;;;;;;;38.10;29.60;;;3.50;99.90;;;;;;5071915;28;20387;-52
2022/03/24 04:49:33;;;;;;;22.98;19.92;;;3.50;99.90;;;;;;5066883;28;20550;-50
2022/03/24 04:51:59;;;;;;;40.45;31.42;;;3.50;99.90;;;;;;5070783;28;20050;-47
2022/03/24 04:54:25;;;;;;;29.65;24.70;;;3.40;99.90;;;;;;5073745;28;20050;-51
2022/03/24 04:56:50;;;;;;;41.10;30.80;;;3.40;99.90;;;;;;5071917;28;20399;-51
2022/03/24 04:59:16;;;;;;;41.22;33.03;;;3.40;99.90;;;;;;5077992;28;20504;-53
2022/03/24 05:01:42;;;;;;;39.92;30.88;;;3.40;99.90;;;;;;5051518;28;20079;-52
2022/03/24 05:04:08;;;;;;;42.83;33.10;;;3.40;99.90;;;;;;5075041;28;20402;-48
2022/03/24 05:06:34;;;;;;;46.03;34.58;;;3.40;99.90;;;;;;5081682;28;20044;-52
2022/03/24 05:09:00;;;;;;;45.20;33.72;;;3.50;99.90;;;;;;5073092;28;20070;-45
2022/03/24 05:11:25;;;;;;;41.20;31.75;;;3.50;99.90;;;;;;5056037;28;20522;-50
2022/03/24 05:13:51;;;;;;;47.22;35.13;;;3.40;99.90;;;;;;5075420;28;20576;-55
2022/03/24 05:16:18;;;;;;;40.08;31.33;;;3.40;99.90;;;;;;5076836;28;20093;-51
2022/03/24 05:18:44;;;;;;;51.45;36.63;;;3.40;99.90;;;;;;5075899;28;20556;-53
2022/03/24 05:21:10;;;;;;;55.58;41.92;;;3.50;99.90;;;;;;5080187;28;20048;-53
2022/03/24 05:23:36;;;;;;;46.10;35.63;;;3.50;99.90;;;;;;5064612;28;20746;-52
2022/03/24 05:26:02;;;;;;;61.80;44.28;;;3.40;99.90;;;;;;5072683;28;20044;-52
2022/03/24 05:28:28;;;;;;;39.13;30.67;;;3.50;99.90;;;;;;5074284;28;20056;-53
2022/03/24 05:30:53;;;;;;;41.30;31.63;;;3.40;99.90;;;;;;5077516;28;20096;-55
2022/03/24 05:33:19;;;;;;;38.22;30.80;;;3.50;99.90;;;;;;5075069;28;20055;-53
2022/03/24 05:35:45;;;;;;;36.28;28.67;;;3.40;99.90;;;;;;5080902;28;20483;-54
2022/03/24 05:38:11;;;;;;;38.22;30.92;;;3.40;99.90;;;;;;5077770;28;20093;-54
2022/03/24 05:40:37;;;;;;;40.13;31.83;;;3.40;99.90;;;;;;5081257;28;20055;-54
2022/03/24 05:43:03;;;;;;;62.58;45.50;;;3.50;99.90;;;;;;5073559;28;20117;-50
2022/03/24 05:45:29;;;;;;;46.53;34.35;;;3.50;99.90;;;;;;5061391;28;20487;-52
2022/03/24 05:47:55;;;;;;;48.50;35.85;;;3.50;99.90;;;;;;5073487;28;20051;-52
2022/03/24 05:50:21;;;;;;;56.50;41.25;;;3.60;99.90;;;;;;5073014;28;20128;-53
2022/03/24 05:52:51;;;;;;;54.53;40.70;;;3.70;99.90;;;;;;5072543;28;20054;-53
2022/03/24 05:55:18;;;;;;;55.17;41.95;;;3.70;99.90;;;;;;5081753;28;20109;-54
2022/03/24 05:57:44;;;;;;;53.22;39.78;;;3.80;99.90;;;;;;5073776;28;20036;-54
2022/03/24 06:00:11;;;;;;;52.05;40.83;;;4.00;99.90;;;;;;5081271;28;20047;-50
2022/03/24 06:02:36;;;;;;;49.85;38.65;;;4.00;99.90;;;;;;5073720;28;20382;-55
2022/03/24 06:05:09;;;;;;;60.53;45.70;;;4.20;99.90;;;;;;5080975;28;20048;-54
2022/03/24 06:07:36;;;;;;;65.40;48.70;;;4.40;99.90;;;;;;5068042;28;20052;-51
2022/03/24 06:10:02;;;;;;;63.10;45.35;;;4.60;99.90;;;;;;5072682;28;20048;-50
2022/03/24 06:12:28;;;;;;;69.18;44.35;;;4.90;99.90;;;;;;5065145;28;20931;-54
2022/03/24 06:14:54;;;;;;;75.53;47.95;;;5.30;99.90;;;;;;5071928;28;20142;-54
2022/03/24 06:17:20;;;;;;;77.80;54.55;;;5.80;99.90;;;;;;5065479;28;20055;-53
2022/03/24 06:19:49;;;;;;;67.10;49.63;;;6.30;99.90;;;;;;5079607;28;20050;-53
2022/03/24 06:22:16;;;;;;;53.75;39.42;;;6.60;99.90;;;;;;5072202;28;20076;-54
2022/03/24 06:24:42;;;;;;;49.97;39.42;;;6.90;99.90;;;;;;5071501;28;20052;-47
2022/03/24 06:27:08;;;;;;;49.78;38.85;;;7.30;99.90;;;;;;5072064;28;20636;-53
2022/03/24 06:29:35;;;;;;;46.08;36.20;;;7.60;99.90;;;;;;5078699;28;20051;-53
2022/03/24 06:32:01;;;;;;;44.17;37.50;;;8.00;99.90;;;;;;5067259;28;20040;-54
2022/03/24 06:34:27;;;;;;;46.15;38.03;;;8.30;99.90;;;;;;5076763;28;20517;-52
2022/03/24 06:36:56;;;;;;;56.17;44.40;;;8.70;99.90;;;;;;5079903;28;20410;-54
2022/03/24 06:39:22;;;;;;;54.47;47.08;;;9.10;99.90;;;;;;5077304;28;20492;-55
2022/03/24 06:41:48;;;;;;;63.20;50.05;;;9.60;99.90;;;;;;5040435;28;20070;-55
2022/03/24 06:44:18;;;;;;;46.72;41.50;;;9.90;99.90;;;;;;5071887;28;20044;-53
2022/03/24 06:46:44;;;;;;;48.10;39.88;;;9.90;99.90;;;;;;5075982;28;20047;-54
2022/03/24 06:49:10;;;;;;;51.10;44.72;;;10.20;99.90;;;;;;5068723;28;20044;-52
2022/03/24 06:51:36;;;;;;;52.78;44.17;;;10.30;99.90;;;;;;5069403;28;20048;-52
2022/03/24 06:54:03;;;;;;;50.97;45.55;;;10.60;99.90;;;;;;5070614;28;20369;-54
2022/03/24 06:56:28;;;;;;;54.15;48.10;;;10.70;99.90;;;;;;5059665;28;20056;-54
2022/03/24 06:58:54;;;;;;;56.08;50.08;;;10.60;99.90;;;;;;5076727;28;20056;-55
2022/03/24 07:01:20;;;;;;;61.53;53.70;;;10.40;99.90;;;;;;5054769;28;20060;-54
2022/03/24 07:03:46;;;;;;;63.83;54.92;;;10.40;99.90;;;;;;5071153;28;20051;-51
2022/03/24 07:06:12;;;;;;;67.55;58.10;;;10.30;99.90;;;;;;5081002;28;20376;-55
2022/03/24 07:08:38;;;;;;;72.47;59.47;;;10.30;99.90;;;;;;5071543;28;20071;-50
2022/03/24 07:11:04;;;;;;;69.35;59.70;;;10.40;99.90;;;;;;5070757;28;20487;-53
2022/03/24 07:13:30;;;;;;;68.20;59.80;;;10.50;99.90;;;;;;5076166;28;20197;-51
2022/03/24 07:15:56;;;;;;;72.93;61.60;;;10.50;99.90;;;;;;5074558;28;20162;-54
2022/03/24 07:18:22;;;;;;;80.25;69.18;;;10.60;99.90;;;;;;5036417;28;20395;-53
2022/03/24 07:20:49;;;;;;;94.07;77.88;;;10.70;99.90;;;;;;5080465;28;20255;-55
2022/03/24 07:23:14;;;;;;;96.22;81.22;;;10.80;99.90;;;;;;5051502;28;20094;-54
2022/03/24 07:25:44;;;;;;;88.65;75.07;;;10.90;99.90;;;;;;5055040;28;20139;-53
2022/03/24 07:28:11;;;;;;;85.88;72.43;;;11.10;99.90;;;;;;5069907;28;20107;-54
2022/03/24 07:30:37;;;;;;;82.70;69.20;;;11.10;99.90;;;;;;5077235;28;20531;-54
2022/03/24 07:33:04;;;;;;;87.15;70.93;;;11.20;99.90;;;;;;5068164;28;20147;-55
2022/03/24 07:35:31;;;;;;;83.95;71.15;;;11.20;99.90;;;;;;5073318;28;20056;-51
2022/03/24 07:37:57;;;;;;;80.88;69.82;;;11.30;99.90;;;;;;5062197;28;20052;-50
2022/03/24 07:40:24;;;;;;;84.63;68.78;;;11.10;99.90;;;;;;5076469;28;20044;-53
2022/03/24 07:42:52;;;;;;;81.97;70.60;;;11.30;99.90;;;;;;5079298;28;20117;-54
2022/03/24 07:45:22;;;;;;;82.97;69.53;;;11.30;99.90;;;;;;5075358;28;20044;-54
2022/03/24 07:48:25;;;;;;;87.60;69.50;;;11.20;99.90;;;;;;5075040;28;20044;-54
2022/03/24 07:50:53;;;;;;;84.97;70.43;;;11.20;99.90;;;;;;5075253;28;20047;-53
2022/03/24 07:53:39;;;;;;;80.00;70.43;;;11.20;99.90;;;;;;5075166;28;20067;-54
2022/03/24 07:56:05;;;;;;;82.85;69.80;;;11.40;99.90;;;;;;5083053;28;20121;-54
2022/03/24 07:58:31;;;;;;;80.30;70.63;;;11.60;99.90;;;;;;5083534;28;20040;-54
2022/03/24 08:00:57;;;;;;;87.45;71.60;;;11.80;99.90;;;;;;5083477;28;20048;-53
2022/03/24 08:03:23;;;;;;;87.18;73.57;;;12.00;99.90;;;;;;5080220;28;20473;-57
2022/03/24 08:05:50;;;;;;;83.95;73.22;;;12.10;99.90;;;;;;5076707;28;20058;-55
2022/03/24 08:08:17;;;;;;;87.60;74.32;;;12.20;99.90;;;;;;5077985;28;20115;-53
2022/03/24 08:10:45;;;;;;;86.40;75.10;;;12.30;99.90;;;;;;5077379;28;20048;-53
2022/03/24 08:13:15;;;;;;;90.43;76.68;;;12.30;99.90;;;;;;5067913;28;20593;-55
2022/03/24 08:15:42;;;;;;;85.90;73.55;;;12.40;99.90;;;;;;5057091;28;20092;-55
2022/03/24 08:18:09;;;;;;;90.65;76.25;;;12.50;99.90;;;;;;5062616;28;20137;-48
2022/03/24 08:20:42;;;;;;;85.18;74.35;;;12.70;99.90;;;;;;5055526;28;20526;-55
2022/03/24 08:23:09;;;;;;;87.32;75.30;;;12.70;99.90;;;;;;5042710;28;20113;-51
2022/03/24 08:25:35;;;;;;;86.40;77.07;;;12.90;99.90;;;;;;5049171;28;20048;-55
2022/03/24 08:28:19;;;;;;;88.95;77.35;;;12.90;99.90;;;;;;5055048;28;20393;-55
2022/03/24 08:30:45;;;;;;;87.00;75.90;;;13.00;99.90;;;;;;5057475;28;20377;-55
2022/03/24 08:33:14;;;;;;;90.18;74.80;;;13.10;99.90;;;;;;5047247;28;20052;-55
2022/03/24 08:35:42;;;;;;;77.82;66.47;;;13.20;99.90;;;;;;5029364;28;20049;-55
2022/03/24 08:38:09;;;;;;;78.97;68.55;;;13.10;99.90;;;;;;5061336;28;20052;-52
2022/03/24 08:40:35;;;;;;;76.10;65.50;;;13.20;99.90;;;;;;5062502;28;20380;-55
2022/03/24 08:43:01;;;;;;;74.10;63.72;;;13.20;99.90;;;;;;5061642;28;20048;-55
2022/03/24 08:45:27;;;;;;;77.75;66.15;;;13.10;99.90;;;;;;5040814;28;20356;-52
2022/03/24 08:47:53;;;;;;;76.10;65.38;;;13.10;99.90;;;;;;5053766;28;20048;-55
2022/03/24 08:50:20;;;;;;;74.53;64.25;;;13.30;99.90;;;;;;5062776;28;20052;-55
2022/03/24 08:52:45;;;;;;;79.05;67.97;;;13.30;99.90;;;;;;5056331;28;20051;-55
2022/03/24 08:55:13;;;;;;;85.65;73.53;;;13.60;99.90;;;;;;5059629;28;20044;-55
2022/03/24 08:57:41;;;;;;;82.32;73.00;;;13.80;99.90;;;;;;5052693;28;20052;-54
2022/03/24 09:00:12;;;;;;;88.60;75.00;;;13.90;99.90;;;;;;5061584;28;20510;-55
2022/03/24 09:02:46;;;;;;;84.55;72.15;;;14.10;99.90;;;;;;5048159;28;20088;-55
2022/03/24 09:05:13;;;;;;;78.07;69.53;;;14.10;99.90;;;;;;5059601;28;20837;-56
2022/03/24 09:07:40;;;;;;;76.80;66.20;;;14.20;99.90;;;;;;5047583;28;20541;-55
2022/03/24 09:10:07;;;;;;;70.68;62.60;;;14.20;99.90;;;;;;5051603;28;20045;-56
2022/03/24 09:12:35;;;;;;;73.05;64.00;;;14.20;99.90;;;;;;5059610;28;20312;-56
2022/03/24 09:15:05;;;;;;;72.88;63.38;;;14.30;99.90;;;;;;5083419;28;20091;-55
2022/03/24 09:17:32;;;;;;;68.00;60.72;;;14.40;99.90;;;;;;5066403;28;20062;-56
2022/03/24 09:19:58;;;;;;;73.70;60.80;;;14.50;99.90;;;;;;5081660;28;20600;-54
2022/03/24 09:22:24;;;;;;;65.05;58.08;;;14.60;99.90;;;;;;5082549;28;20044;-56
2022/03/24 09:24:49;;;;;;;60.85;53.92;;;14.50;99.90;;;;;;5078865;28;20059;-56
2022/03/24 09:27:15;;;;;;;63.03;54.58;;;14.50;99.90;;;;;;5078927;28;20036;-54
2022/03/24 09:29:42;;;;;;;64.97;57.05;;;14.80;99.90;;;;;;5080816;28;20411;-52
2022/03/24 09:32:12;;;;;;;62.38;55.33;;;14.60;99.90;;;;;;5075991;28;20070;-52
2022/03/24 09:34:39;;;;;;;65.35;55.25;;;14.80;99.90;;;;;;5082808;28;20079;-51
2022/03/24 09:37:06;;;;;;;66.65;56.90;;;15.00;99.90;;;;;;5081384;28;20052;-56
2022/03/24 09:39:32;;;;;;;61.15;54.25;;;15.20;99.90;;;;;;5080524;28;20088;-55
2022/03/24 09:41:58;;;;;;;61.75;55.13;;;15.00;99.90;;;;;;5081348;28;20044;-55
2022/03/24 09:44:24;;;;;;;65.13;57.15;;;15.10;99.90;;;;;;5076829;28;20045;-56
2022/03/24 09:46:50;;;;;;;62.45;55.08;;;15.30;99.90;;;;;;5075765;28;20036;-56
2022/03/24 09:49:16;;;;;;;62.67;55.85;;;15.50;99.90;;;;;;5076059;28;20424;-54
2022/03/24 09:51:43;;;;;;;61.42;54.65;;;15.50;99.90;;;;;;5065962;28;20475;-55
2022/03/24 09:54:11;;;;;;;63.50;52.90;;;15.50;99.90;;;;;;5080374;28;20127;-55
2022/03/24 09:56:38;;;;;;;58.45;50.60;;;15.70;99.90;;;;;;5080867;28;20589;-55
2022/03/24 09:59:04;;;;;;;53.28;47.47;;;15.80;99.90;;;;;;5057840;28;20057;-56
2022/03/24 10:01:30;;;;;;;60.30;50.38;;;15.70;99.90;;;;;;5048330;28;20423;-55
2022/03/24 10:04:08;;;;;;;62.70;48.47;;;15.60;99.90;;;;;;5066502;28;20040;-54
2022/03/24 10:06:36;;;;;;;56.60;49.38;;;15.70;99.90;;;;;;5067115;28;20048;-56
2022/03/24 10:09:04;;;;;;;53.30;47.45;;;15.80;99.90;;;;;;5053435;28;20110;-56
2022/03/24 10:11:29;;;;;;;56.63;46.28;;;15.90;99.90;;;;;;5078082;28;20127;-56
2022/03/24 10:13:58;;;;;;;53.03;45.25;;;16.00;99.90;;;;;;5059366;28;20553;-56
2022/03/24 10:16:32;;;;;;;53.10;45.88;;;16.10;99.90;;;;;;5059569;28;20411;-56
2022/03/24 10:19:05;;;;;;;54.22;47.88;;;16.30;99.90;;;;;;5052915;28;20155;-55
2022/03/24 10:21:50;;;;;;;54.33;48.28;;;16.20;99.90;;;;;;5047526;28;20055;-56
2022/03/24 10:24:21;;;;;;;57.33;47.65;;;16.10;99.90;;;;;;5050136;28;20052;-51
2022/03/24 10:26:55;;;;;;;55.58;45.03;;;16.30;99.90;;;;;;5061456;28;20392;-56
2022/03/24 10:29:23;;;;;;;48.85;39.65;;;16.40;99.90;;;;;;5059282;28;20060;-56
2022/03/24 10:31:53;;;;;;;53.28;44.92;;;16.40;98.50;;;;;;5049076;28;20045;-56
2022/03/24 10:34:29;;;;;;;52.35;44.13;;;16.40;99.70;;;;;;5049003;28;20044;-55
2022/03/24 10:36:56;;;;;;;52.35;44.05;;;16.40;99.50;;;;;;5058844;28;20509;-57
2022/03/24 10:39:26;;;;;;;49.63;42.78;;;16.30;98.90;;;;;;5046594;28;20484;-60
2022/03/24 10:41:52;;;;;;;53.33;45.78;;;16.30;99.20;;;;;;5054603;28;20562;-56
2022/03/24 10:44:18;;;;;;;51.50;41.97;;;16.50;99.60;;;;;;5057148;28;20059;-56
2022/03/24 10:46:48;;;;;;;56.42;44.05;;;16.50;99.60;;;;;;5060062;28;20049;-57
2022/03/24 10:49:20;;;;;;;49.28;41.92;;;16.70;99.90;;;;;;5049604;28;20499;-56
2022/03/24 10:51:49;;;;;;;55.38;44.67;;;16.80;99.80;;;;;;5048661;28;20149;-55
2022/03/24 10:54:38;;;;;;;47.50;41.58;;;16.80;99.20;;;;;;5042109;28;20499;-56
2022/03/24 10:57:08;;;;;;;51.10;42.10;;;17.00;98.80;;;;;;5034777;28;20052;-55
2022/03/24 10:59:39;;;;;;;44.60;39.72;;;17.00;98.40;;;;;;5043953;28;20483;-56
2022/03/24 11:02:05;;;;;;;44.65;38.95;;;17.00;97.70;;;;;;5027095;28;20061;-55
2022/03/24 11:04:31;;;;;;;49.85;39.78;;;17.10;97.80;;;;;;5044985;28;20480;-55
2022/03/24 11:06:57;;;;;;;45.40;34.40;;;17.20;98.20;;;;;;5044632;28;20142;-53
2022/03/24 11:09:27;;;;;;;42.42;32.25;;;17.20;96.30;;;;;;5044720;28;20131;-56
2022/03/24 11:12:29;;;;;;;44.85;35.55;;;17.20;95.90;;;;;;5048450;28;20049;-56
2022/03/24 11:15:00;;;;;;;40.47;32.20;;;17.20;95.10;;;;;;5062629;28;20139;-56
2022/03/24 11:17:31;;;;;;;45.15;30.23;;;17.30;96.20;;;;;;5064808;28;20052;-55
2022/03/24 11:20:13;;;;;;;36.72;27.10;;;17.30;93.90;;;;;;5061097;28;20589;-51
2022/03/24 11:22:43;;;;;;;41.42;29.88;;;17.20;94.00;;;;;;5049207;28;20049;-56
2022/03/24 11:25:10;;;;;;;33.53;27.40;;;17.10;93.90;;;;;;5062813;28;20055;-56
2022/03/24 11:27:37;;;;;;;40.63;31.38;;;17.10;93.50;;;;;;5053123;28;20061;-55
2022/03/24 11:30:05;;;;;;;42.15;31.42;;;17.20;93.10;;;;;;5044979;28;20080;-56
2022/03/24 11:32:36;;;;;;;39.05;30.38;;;17.40;93.90;;;;;;5049823;28;20155;-55
2022/03/24 11:35:04;;;;;;;44.33;35.08;;;17.50;93.20;;;;;;5056088;28;20455;-56
2022/03/24 11:37:30;;;;;;;44.47;36.03;;;17.50;94.10;;;;;;5041884;28;20059;-54
2022/03/24 11:40:08;;;;;;;44.63;35.97;;;17.60;93.60;;;;;;5055549;28;20045;-56
2022/03/24 11:42:44;;;;;;;44.83;35.22;;;17.50;93.00;;;;;;5049470;28;20087;-56
2022/03/24 11:45:34;;;;;;;45.25;35.92;;;17.60;93.50;;;;;;5047250;28;20475;-56
2022/03/24 11:48:00;;;;;;;45.72;36.17;;;17.60;92.90;;;;;;5055695;28;20462;-56
2022/03/24 11:50:47;;;;;;;51.65;39.33;;;17.70;93.00;;;;;;5054179;28;20312;-56
2022/03/24 11:53:18;;;;;;;42.42;34.80;;;17.60;92.00;;;;;;5035654;28;20855;-56
2022/03/24 11:55:59;;;;;;;45.05;34.35;;;17.60;92.00;;;;;;5057975;28;20106;-56
2022/03/24 11:58:31;;;;;;;41.60;32.75;;;17.70;92.80;;;;;;5061558;28;20117;-56
2022/03/24 12:01:17;;;;;;;44.85;34.65;;;17.80;91.90;;;;;;5064258;28;20050;-55
2022/03/24 12:03:45;;;;;;;44.40;34.30;;;17.80;92.00;;;;;;5052316;28;20060;-54
2022/03/24 12:06:14;;;;;;;42.58;35.78;;;17.80;92.10;;;;;;5048088;28;20043;-57
2022/03/24 12:08:46;;;;;;;44.47;34.92;;;17.50;91.80;;;;;;5050570;28;20037;-56
2022/03/24 12:11:30;;;;;;;42.38;36.08;;;17.60;92.80;;;;;;5046972;28;20056;-56
2022/03/24 12:14:00;;;;;;;53.35;39.38;;;17.60;92.70;;;;;;5054151;28;20064;-57
2022/03/24 12:16:28;;;;;;;46.28;39.55;;;17.60;93.00;;;;;;5062384;28;20423;-54
2022/03/24 12:18:54;;;;;;;46.80;40.25;;;17.60;93.50;;;;;;5035194;28;20052;-56
2022/03/24 12:21:28;;;;;;;42.78;37.67;;;17.40;94.00;;;;;;5062466;28;20097;-56
2022/03/24 12:24:19;;;;;;;55.85;42.20;;;17.30;94.10;;;;;;5056989;28;20072;-56
2022/03/24 12:26:55;;;;;;;55.13;43.10;;;17.30;95.00;;;;;;5051790;28;20040;-56
2022/03/24 12:29:22;;;;;;;52.88;42.80;;;17.40;95.20;;;;;;5061040;28;20127;-56
2022/03/24 12:32:00;;;;;;;46.25;40.65;;;17.50;94.70;;;;;;5042022;28;20123;-54
2022/03/24 12:34:29;;;;;;;53.03;43.03;;;17.40;95.40;;;;;;5060551;28;20487;-56
2022/03/24 12:36:55;;;;;;;52.10;41.78;;;17.40;94.90;;;;;;5052224;28;20488;-56
2022/03/24 12:39:35;;;;;;;53.17;43.08;;;17.40;95.40;;;;;;5062235;28;20522;-56
2022/03/24 12:42:12;;;;;;;50.03;43.83;;;17.50;96.10;;;;;;5052894;28;20088;-55
2022/03/24 12:44:55;;;;;;;51.00;44.47;;;17.60;96.20;;;;;;5061521;28;20051;-50